ARG1913 SULS-SABE
Flight info
| Callsign | ARG1913 |
|---|---|
| Flight time | 0h 32m |
| Altitude | 18000 |
| Route | LUCIO A306 UGIMI UGIMI8R |
| Aircraft | B738/M-V/N |
Departure
| Time | 2026-05-03 20:55 |
|---|---|
| Airport | Capitan Corbeta CA Curbelo International Airport (SULS) |
Arrival
| Time | 2026-05-03 21:28 |
|---|---|
| Airport | Aeroparque Jorge Newbery (SABE) |
| Time | Latitude | Longitude | Altitude | Speed | Heading |
|---|---|---|---|---|---|
| 2026-05-03 20:44 | -34.85975 | -55.09942 | 99 ft | 0 kts | 161° |
| 2026-05-03 20:52 | -34.85977 | -55.09941 | 99 ft | 3 kts | 161° |
| 2026-05-03 20:53 | -34.86002 | -55.09907 | 99 ft | 7 kts | 91° |
| 2026-05-03 20:53 | -34.85987 | -55.09831 | 99 ft | 11 kts | 75° |
| 2026-05-03 20:53 | -34.85918 | -55.09816 | 99 ft | 17 kts | 343° |
| 2026-05-03 20:53 | -34.85747 | -55.09883 | 100 ft | 34 kts | 342° |
| 2026-05-03 20:54 | -34.85639 | -55.09834 | 101 ft | 31 kts | 67° |
| 2026-05-03 20:54 | -34.85521 | -55.09404 | 102 ft | 8 kts | 17° |
| 2026-05-03 20:54 | -34.85561 | -55.09582 | 102 ft | 62 kts | 252° |
| 2026-05-03 20:55 | -34.85798 | -55.10488 | 105 ft | 157 kts | 253° |
| 2026-05-03 20:55 | -34.86188 | -55.11876 | 961 ft | 174 kts | 253° |
| 2026-05-03 20:55 | -34.86577 | -55.13337 | 2041 ft | 198 kts | 256° |
| 2026-05-03 20:55 | -34.87018 | -55.15052 | 2407 ft | 225 kts | 255° |
| 2026-05-03 20:56 | -34.87501 | -55.16924 | 3071 ft | 237 kts | 255° |
| 2026-05-03 20:56 | -34.88007 | -55.18877 | 3850 ft | 251 kts | 255° |
| 2026-05-03 20:56 | -34.88534 | -55.20912 | 4946 ft | 252 kts | 254° |
| 2026-05-03 20:56 | -34.89066 | -55.22959 | 6033 ft | 255 kts | 254° |
| 2026-05-03 20:57 | -34.89597 | -55.25005 | 7083 ft | 258 kts | 254° |
| 2026-05-03 20:57 | -34.90138 | -55.27094 | 8144 ft | 259 kts | 254° |
| 2026-05-03 20:57 | -34.90681 | -55.29189 | 9216 ft | 261 kts | 254° |
| 2026-05-03 20:57 | -34.91227 | -55.31302 | 10273 ft | 262 kts | 254° |
| 2026-05-03 20:58 | -34.91789 | -55.33485 | 10849 ft | 282 kts | 254° |
| 2026-05-03 20:58 | -34.92407 | -55.35889 | 11053 ft | 312 kts | 254° |
| 2026-05-03 20:58 | -34.93083 | -55.38517 | 11289 ft | 336 kts | 253° |
| 2026-05-03 20:58 | -34.93794 | -55.41282 | 11932 ft | 345 kts | 253° |
| 2026-05-03 20:59 | -34.94518 | -55.44088 | 12768 ft | 348 kts | 253° |
| 2026-05-03 20:59 | -34.95244 | -55.46912 | 13644 ft | 350 kts | 253° |
| 2026-05-03 20:59 | -34.95976 | -55.49761 | 14371 ft | 354 kts | 253° |
| 2026-05-03 20:59 | -34.96715 | -55.52640 | 15085 ft | 358 kts | 253° |
| 2026-05-03 21:00 | -34.97458 | -55.55542 | 15831 ft | 360 kts | 253° |
| 2026-05-03 21:00 | -34.97710 | -55.56524 | 16085 ft | 360 kts | 253° |
| 2026-05-03 21:00 | -34.98959 | -55.61414 | 17232 ft | 366 kts | 253° |
| 2026-05-03 21:00 | -34.99727 | -55.64422 | 17656 ft | 377 kts | 253° |
| 2026-05-03 21:01 | -35.00511 | -55.67500 | 18094 ft | 382 kts | 253° |
| 2026-05-03 21:01 | -35.01310 | -55.70641 | 18116 ft | 394 kts | 253° |
| 2026-05-03 21:01 | -35.02129 | -55.73865 | 18129 ft | 401 kts | 253° |
| 2026-05-03 21:01 | -35.02952 | -55.77103 | 18115 ft | 398 kts | 253° |
| 2026-05-03 21:02 | -35.03768 | -55.80318 | 18125 ft | 397 kts | 253° |
| 2026-05-03 21:02 | -35.04578 | -55.83528 | 18126 ft | 395 kts | 254° |
| 2026-05-03 21:02 | -35.05142 | -55.86808 | 18119 ft | 395 kts | 262° |
| 2026-05-03 21:02 | -35.05327 | -55.90155 | 18131 ft | 396 kts | 269° |
| 2026-05-03 21:03 | -35.05132 | -55.93516 | 18132 ft | 398 kts | 274° |
| 2026-05-03 21:03 | -35.04879 | -55.96879 | 18118 ft | 399 kts | 274° |
| 2026-05-03 21:03 | -35.04634 | -56.00247 | 18118 ft | 400 kts | 273° |
| 2026-05-03 21:03 | -35.04397 | -56.03637 | 18125 ft | 401 kts | 273° |
| 2026-05-03 21:04 | -35.04166 | -56.07027 | 18126 ft | 401 kts | 273° |
| 2026-05-03 21:04 | -35.03937 | -56.10422 | 18127 ft | 402 kts | 273° |
| 2026-05-03 21:04 | -35.03705 | -56.13818 | 18124 ft | 402 kts | 273° |
| 2026-05-03 21:04 | -35.03469 | -56.17213 | 18120 ft | 401 kts | 273° |
| 2026-05-03 21:05 | -35.03231 | -56.20606 | 18124 ft | 401 kts | 273° |
| 2026-05-03 21:05 | -35.02994 | -56.23953 | 18119 ft | 401 kts | 273° |
| 2026-05-03 21:05 | -35.02754 | -56.27341 | 18121 ft | 401 kts | 273° |
| 2026-05-03 21:05 | -35.02513 | -56.30727 | 18128 ft | 401 kts | 273° |
| 2026-05-03 21:06 | -35.02272 | -56.34111 | 18121 ft | 400 kts | 273° |
| 2026-05-03 21:06 | -35.02030 | -56.37494 | 18119 ft | 400 kts | 273° |
| 2026-05-03 21:06 | -35.01787 | -56.40875 | 18122 ft | 400 kts | 273° |
| 2026-05-03 21:06 | -35.01543 | -56.44254 | 18116 ft | 400 kts | 273° |
| 2026-05-03 21:07 | -35.01299 | -56.47634 | 18121 ft | 400 kts | 273° |
| 2026-05-03 21:07 | -35.01054 | -56.51012 | 18099 ft | 400 kts | 273° |
| 2026-05-03 21:07 | -35.00807 | -56.54393 | 18104 ft | 401 kts | 273° |
| 2026-05-03 21:07 | -35.00560 | -56.57779 | 18110 ft | 401 kts | 273° |
| 2026-05-03 21:08 | -35.00311 | -56.61163 | 18114 ft | 402 kts | 274° |
| 2026-05-03 21:08 | -35.00061 | -56.64563 | 18108 ft | 402 kts | 274° |
| 2026-05-03 21:08 | -34.99810 | -56.67956 | 18106 ft | 402 kts | 274° |
| 2026-05-03 21:08 | -34.99557 | -56.71355 | 18105 ft | 402 kts | 274° |
| 2026-05-03 21:09 | -34.99303 | -56.74754 | 18110 ft | 402 kts | 274° |
| 2026-05-03 21:09 | -34.99049 | -56.78153 | 18109 ft | 402 kts | 274° |
| 2026-05-03 21:09 | -34.98795 | -56.81550 | 18109 ft | 402 kts | 274° |
| 2026-05-03 21:09 | -34.98539 | -56.84945 | 18110 ft | 402 kts | 274° |
| 2026-05-03 21:10 | -34.98285 | -56.88337 | 18107 ft | 401 kts | 273° |
| 2026-05-03 21:10 | -34.98155 | -56.91731 | 18103 ft | 400 kts | 270° |
| 2026-05-03 21:10 | -34.98136 | -56.95124 | 18101 ft | 400 kts | 269° |
| 2026-05-03 21:10 | -34.98154 | -56.98513 | 18101 ft | 400 kts | 268° |
| 2026-05-03 21:11 | -34.98175 | -57.01901 | 18106 ft | 400 kts | 268° |
| 2026-05-03 21:11 | -34.98127 | -57.05288 | 18099 ft | 400 kts | 274° |
| 2026-05-03 21:11 | -34.97630 | -57.08635 | 18099 ft | 403 kts | 283° |
| 2026-05-03 21:11 | -34.96804 | -57.11903 | 18096 ft | 404 kts | 285° |
| 2026-05-03 21:12 | -34.95965 | -57.15171 | 18099 ft | 404 kts | 284° |
| 2026-05-03 21:12 | -34.95132 | -57.18446 | 18096 ft | 404 kts | 284° |
| 2026-05-03 21:12 | -34.94584 | -57.20610 | 17692 ft | 402 kts | 284° |
| 2026-05-03 21:12 | -34.93774 | -57.23822 | 17055 ft | 393 kts | 284° |
| 2026-05-03 21:13 | -34.92982 | -57.26974 | 16346 ft | 386 kts | 284° |
| 2026-05-03 21:13 | -34.92203 | -57.30077 | 15609 ft | 380 kts | 284° |
| 2026-05-03 21:13 | -34.91435 | -57.33142 | 14893 ft | 376 kts | 285° |
| 2026-05-03 21:13 | -34.90675 | -57.36170 | 14189 ft | 372 kts | 285° |
| 2026-05-03 21:14 | -34.89921 | -57.39173 | 13410 ft | 369 kts | 285° |
| 2026-05-03 21:14 | -34.89176 | -57.42136 | 12670 ft | 365 kts | 285° |
| 2026-05-03 21:14 | -34.88438 | -57.45072 | 11959 ft | 360 kts | 285° |
| 2026-05-03 21:14 | -34.87707 | -57.47970 | 11280 ft | 356 kts | 286° |
| 2026-05-03 21:15 | -34.86991 | -57.50807 | 11019 ft | 344 kts | 286° |
| 2026-05-03 21:15 | -34.86283 | -57.53612 | 10790 ft | 353 kts | 286° |
| 2026-05-03 21:15 | -34.85556 | -57.56489 | 10551 ft | 357 kts | 286° |
| 2026-05-03 21:15 | -34.84824 | -57.59379 | 10313 ft | 357 kts | 287° |
| 2026-05-03 21:16 | -34.84104 | -57.62219 | 10083 ft | 355 kts | 287° |
| 2026-05-03 21:16 | -34.83368 | -57.65121 | 9831 ft | 354 kts | 287° |
| 2026-05-03 21:16 | -34.82642 | -57.67977 | 9582 ft | 353 kts | 287° |
| 2026-05-03 21:16 | -34.81917 | -57.70828 | 9316 ft | 352 kts | 287° |
| 2026-05-03 21:17 | -34.81192 | -57.73670 | 9063 ft | 352 kts | 287° |
| 2026-05-03 21:17 | -34.80467 | -57.76514 | 8806 ft | 351 kts | 287° |
| 2026-05-03 21:17 | -34.79745 | -57.79345 | 8370 ft | 350 kts | 287° |
| 2026-05-03 21:17 | -34.79023 | -57.82169 | 7645 ft | 348 kts | 287° |
| 2026-05-03 21:18 | -34.78307 | -57.84969 | 6971 ft | 344 kts | 287° |
| 2026-05-03 21:18 | -34.77601 | -57.87730 | 6276 ft | 340 kts | 287° |
| 2026-05-03 21:18 | -34.76901 | -57.90460 | 5585 ft | 337 kts | 288° |
| 2026-05-03 21:18 | -34.76208 | -57.93163 | 5125 ft | 329 kts | 288° |
| 2026-05-03 21:19 | -34.75551 | -57.95723 | 4989 ft | 316 kts | 288° |
| 2026-05-03 21:19 | -34.74913 | -57.98210 | 4837 ft | 301 kts | 288° |
| 2026-05-03 21:19 | -34.74304 | -58.00579 | 4686 ft | 287 kts | 288° |
| 2026-05-03 21:19 | -34.73722 | -58.02841 | 4577 ft | 274 kts | 289° |
| 2026-05-03 21:20 | -34.73164 | -58.05006 | 4458 ft | 263 kts | 289° |
| 2026-05-03 21:20 | -34.72628 | -58.07084 | 4350 ft | 252 kts | 289° |
| 2026-05-03 21:20 | -34.72114 | -58.09078 | 4250 ft | 242 kts | 289° |
| 2026-05-03 21:20 | -34.71600 | -58.10996 | 4147 ft | 233 kts | 290° |
| 2026-05-03 21:21 | -34.71084 | -58.12824 | 4059 ft | 225 kts | 290° |
| 2026-05-03 21:21 | -34.70626 | -58.14603 | 3961 ft | 216 kts | 289° |
| 2026-05-03 21:21 | -34.70007 | -58.16234 | 3849 ft | 209 kts | 303° |
| 2026-05-03 21:21 | -34.69206 | -58.17708 | 3790 ft | 208 kts | 306° |
| 2026-05-03 21:22 | -34.68402 | -58.19133 | 3687 ft | 199 kts | 306° |
| 2026-05-03 21:22 | -34.67663 | -58.20457 | 3624 ft | 180 kts | 305° |
| 2026-05-03 21:22 | -34.66991 | -58.21665 | 3455 ft | 165 kts | 306° |
| 2026-05-03 21:22 | -34.66379 | -58.22769 | 3284 ft | 152 kts | 306° |
| 2026-05-03 21:23 | -34.65813 | -58.23791 | 3109 ft | 139 kts | 308° |
| 2026-05-03 21:23 | -34.65277 | -58.24752 | 3072 ft | 141 kts | 308° |
| 2026-05-03 21:23 | -34.64727 | -58.25741 | 2892 ft | 139 kts | 308° |
| 2026-05-03 21:23 | -34.64207 | -58.26681 | 2710 ft | 130 kts | 308° |
| 2026-05-03 21:24 | -34.63711 | -58.27573 | 2542 ft | 125 kts | 308° |
| 2026-05-03 21:24 | -34.63224 | -58.28449 | 2387 ft | 126 kts | 309° |
| 2026-05-03 21:24 | -34.62730 | -58.29338 | 2211 ft | 127 kts | 309° |
| 2026-05-03 21:24 | -34.62234 | -58.30230 | 2047 ft | 128 kts | 309° |
| 2026-05-03 21:25 | -34.61737 | -58.31125 | 1879 ft | 128 kts | 309° |
| 2026-05-03 21:25 | -34.61237 | -58.32026 | 1714 ft | 129 kts | 309° |
| 2026-05-03 21:25 | -34.60734 | -58.32931 | 1505 ft | 130 kts | 310° |
| 2026-05-03 21:25 | -34.60231 | -58.33826 | 1367 ft | 127 kts | 311° |
| 2026-05-03 21:26 | -34.59724 | -58.34713 | 1166 ft | 129 kts | 311° |
| 2026-05-03 21:26 | -34.59253 | -58.35634 | 1037 ft | 128 kts | 310° |
| 2026-05-03 21:26 | -34.58748 | -58.36497 | 900 ft | 127 kts | 311° |
| 2026-05-03 21:26 | -34.58236 | -58.37398 | 751 ft | 133 kts | 307° |
| 2026-05-03 21:27 | -34.57710 | -58.38360 | 587 ft | 136 kts | 309° |
| 2026-05-03 21:27 | -34.57184 | -58.39298 | 395 ft | 134 kts | 308° |
| 2026-05-03 21:27 | -34.56677 | -58.40224 | 163 ft | 133 kts | 307° |
| 2026-05-03 21:27 | -34.56179 | -58.41126 | 27 ft | 118 kts | 307° |
| 2026-05-03 21:28 | -34.55832 | -58.41741 | 25 ft | 39 kts | 303° |
| 2026-05-03 21:28 | -34.55718 | -58.41918 | 26 ft | 8 kts | 342° |
| 2026-05-03 21:28 | -34.55676 | -58.41883 | 27 ft | 8 kts | 75° |
| 2026-05-03 21:28 | -34.55692 | -58.41835 | 28 ft | 0 kts | 122° |
| 2026-05-03 21:29 | -34.55692 | -58.41834 | 28 ft | 0 kts | 122° |
| 2026-05-03 21:29 | -34.55696 | -58.41828 | 28 ft | 3 kts | 122° |
| 2026-05-03 21:29 | -34.55725 | -58.41772 | 27 ft | 11 kts | 122° |
| 2026-05-03 21:29 | -34.55763 | -58.41687 | 25 ft | 12 kts | 116° |
| 2026-05-03 21:30 | -34.55772 | -58.41591 | 28 ft | 13 kts | 40° |
| 2026-05-03 21:30 | -34.55699 | -58.41540 | 27 ft | 12 kts | 7° |
| 2026-05-03 21:30 | -34.55656 | -58.41534 | 26 ft | 0 kts | 9° |